createdAt,value
2018-05-27T00:00:13.679Z,95.84
2018-05-27T00:01:13.873Z,96.22
2018-05-27T00:02:14.057Z,95.84
2018-05-27T00:03:14.249Z,96.42
2018-05-27T00:04:14.432Z,96.03
2018-05-27T00:05:14.596Z,95.65
2018-05-27T00:06:14.787Z,95.46
2018-05-27T00:07:14.959Z,95.07
2018-05-27T00:08:15.145Z,94.98
2018-05-27T00:09:15.329Z,94.60
2018-05-27T00:10:15.505Z,94.50
2018-05-27T00:11:15.698Z,94.98
2018-05-27T00:12:15.873Z,94.89
2018-05-27T00:13:16.069Z,94.89
2018-05-27T00:14:16.248Z,95.75
2018-05-27T00:15:16.420Z,95.56
2018-05-27T00:16:16.619Z,95.56
2018-05-27T00:17:16.783Z,95.84
2018-05-27T00:18:16.967Z,95.75
2018-05-27T00:19:17.148Z,95.56
2018-05-27T00:20:17.335Z,95.94
2018-05-27T00:21:17.519Z,95.94
2018-05-27T00:22:17.723Z,96.13
2018-05-27T00:23:17.883Z,96.03
2018-05-27T00:24:18.067Z,95.56
2018-05-27T00:25:18.253Z,95.56
2018-05-27T00:26:18.437Z,95.56
2018-05-27T00:27:18.622Z,95.84
2018-05-27T00:28:18.789Z,95.56
2018-05-27T00:29:18.974Z,95.56
2018-05-27T00:30:19.164Z,95.65
2018-05-27T00:31:19.339Z,95.56
2018-05-27T00:32:19.529Z,95.46
2018-05-27T00:33:19.719Z,95.65
2018-05-27T00:34:19.899Z,95.56
2018-05-27T00:35:20.103Z,95.84
2018-05-27T00:36:20.266Z,95.46
2018-05-27T00:37:20.450Z,95.94
2018-05-27T00:38:20.622Z,95.84
2018-05-27T00:39:20.814Z,94.89
2018-05-27T00:40:20.976Z,95.07
2018-05-27T00:41:21.164Z,94.98
2018-05-27T00:42:21.351Z,95.07
2018-05-27T00:43:21.531Z,95.17
2018-05-27T00:44:21.722Z,94.98
2018-05-27T00:45:21.921Z,94.65
2018-05-27T00:46:22.105Z,95.12
2018-05-27T00:47:22.297Z,94.26
2018-05-27T00:48:22.474Z,94.36
2018-05-27T00:49:22.658Z,94.84
2018-05-27T00:50:22.843Z,94.55
2018-05-27T00:51:23.030Z,94.45
2018-05-27T00:52:23.206Z,94.26
2018-05-27T00:53:23.392Z,93.79
2018-05-27T00:54:23.568Z,93.40
2018-05-27T00:55:23.747Z,93.12
2018-05-27T00:56:23.934Z,92.63
2018-05-27T00:57:24.112Z,92.44
2018-05-27T00:58:24.297Z,92.35
2018-05-27T00:59:24.462Z,92.25
2018-05-27T01:00:24.686Z,91.58
2018-05-27T01:01:24.835Z,90.82
2018-05-27T01:02:25.020Z,90.63
2018-05-27T01:03:25.215Z,90.10
2018-05-27T01:04:25.369Z,89.62
2018-05-27T01:05:25.554Z,89.34
2018-05-27T01:06:25.740Z,88.86
2018-05-27T01:07:25.931Z,89.15
2018-05-27T01:08:26.110Z,88.38
2018-05-27T01:09:26.299Z,88.76
2018-05-27T01:10:26.508Z,88.57
2018-05-27T01:11:26.661Z,88.29
2018-05-27T01:12:26.835Z,87.81
2018-05-27T01:13:27.033Z,87.90
2018-05-27T01:14:27.249Z,88.00
2018-05-27T01:15:27.415Z,89.24
2018-05-27T01:16:27.597Z,89.15
2018-05-27T01:17:27.790Z,88.48
2018-05-27T01:18:27.950Z,88.76
2018-05-27T01:19:28.135Z,88.67
2018-05-27T01:20:28.326Z,88.48
2018-05-27T01:21:28.506Z,88.48
2018-05-27T01:22:28.685Z,87.90
2018-05-27T01:23:28.873Z,87.52
2018-05-27T01:24:29.049Z,87.33
2018-05-27T01:25:29.225Z,86.94
2018-05-27T01:26:29.404Z,86.76
2018-05-27T01:27:29.604Z,86.57
2018-05-27T01:28:29.774Z,86.85
2018-05-27T01:29:29.964Z,87.33
2018-05-27T01:30:30.140Z,87.62
2018-05-27T01:31:30.338Z,87.43
2018-05-27T01:32:30.529Z,87.33
2018-05-27T01:33:30.705Z,87.81
2018-05-27T01:34:30.902Z,88.19
2018-05-27T01:35:31.097Z,87.81
2018-05-27T01:36:31.263Z,87.90
2018-05-27T01:37:31.447Z,86.76
2018-05-27T01:38:31.642Z,86.66
2018-05-27T01:39:31.810Z,86.08
2018-05-27T01:40:31.977Z,86.28
2018-05-27T01:41:32.172Z,86.57
2018-05-27T01:42:32.378Z,86.08
2018-05-27T01:43:32.540Z,86.18
2018-05-27T01:44:32.786Z,86.18
2018-05-27T01:45:32.911Z,86.08
2018-05-27T01:46:33.103Z,86.47
2018-05-27T01:47:33.264Z,87.14
2018-05-27T01:48:40.184Z,86.85
2018-05-27T01:49:33.632Z,86.94
2018-05-27T01:50:33.799Z,86.47
2018-05-27T01:51:33.985Z,86.66
2018-05-27T01:52:34.165Z,86.08
2018-05-27T01:53:34.347Z,86.28
2018-05-27T01:54:34.520Z,86.28
2018-05-27T01:55:34.702Z,86.37
2018-05-27T01:56:34.889Z,86.04
2018-05-27T01:57:35.076Z,85.75
2018-05-27T01:58:35.278Z,85.94
2018-05-27T01:59:35.470Z,85.28
2018-05-27T02:00:35.631Z,85.09
2018-05-27T02:01:35.818Z,85.09
2018-05-27T02:02:36.000Z,85.94
2018-05-27T02:03:36.176Z,85.47
2018-05-27T02:04:36.355Z,84.89
2018-05-27T02:05:36.567Z,85.18
2018-05-27T02:06:36.721Z,84.23
2018-05-27T02:07:36.912Z,83.94
2018-05-27T02:08:37.094Z,84.03
2018-05-27T02:09:37.277Z,83.84
2018-05-27T02:10:37.464Z,84.17
2018-05-27T02:11:37.666Z,84.23
2018-05-27T02:12:37.847Z,84.42
2018-05-27T02:13:38.031Z,84.32
2018-05-27T02:14:38.207Z,84.55
2018-05-27T02:15:38.412Z,84.65
2018-05-27T02:16:38.578Z,84.84
2018-05-27T02:17:38.788Z,84.84
2018-05-27T02:18:38.936Z,84.89
2018-05-27T02:19:39.143Z,84.61
2018-05-27T02:20:39.313Z,84.52
2018-05-27T02:21:39.493Z,85.18
2018-05-27T02:22:39.664Z,84.80
2018-05-27T02:23:39.846Z,85.09
2018-05-27T02:24:40.021Z,84.99
2018-05-27T02:25:40.195Z,84.80
2018-05-27T02:26:40.372Z,85.09
2018-05-27T02:27:40.558Z,84.80
2018-05-27T02:28:40.753Z,84.89
2018-05-27T02:29:40.904Z,84.13
2018-05-27T02:30:41.151Z,84.42
2018-05-27T02:31:41.289Z,83.65
2018-05-27T02:32:41.472Z,83.84
2018-05-27T02:33:41.655Z,83.46
2018-05-27T02:34:41.844Z,82.98
2018-05-27T02:35:41.998Z,82.89
2018-05-27T02:36:42.190Z,82.98
2018-05-27T02:37:42.361Z,82.89
2018-05-27T02:38:42.545Z,83.27
2018-05-27T02:39:42.746Z,83.46
2018-05-27T02:40:42.907Z,83.08
2018-05-27T02:41:43.139Z,83.37
2018-05-27T02:42:43.270Z,83.46
2018-05-27T02:43:43.479Z,83.08
2018-05-27T02:44:43.663Z,83.08
2018-05-27T02:45:43.812Z,83.33
2018-05-27T02:46:43.990Z,82.89
2018-05-27T02:47:44.173Z,83.17
2018-05-27T02:48:44.362Z,83.51
2018-05-27T02:49:44.534Z,82.79
2018-05-27T02:50:44.714Z,82.18
2018-05-27T02:51:44.894Z,81.89
2018-05-27T02:52:45.090Z,80.46
2018-05-27T02:53:45.272Z,80.65
2018-05-27T02:54:45.452Z,80.84
2018-05-27T02:55:45.637Z,80.46
2018-05-27T02:56:45.832Z,80.27
2018-05-27T02:57:46.001Z,79.88
2018-05-27T02:58:46.182Z,79.41
2018-05-27T02:59:46.372Z,79.22
2018-05-27T03:00:46.546Z,78.64
2018-05-27T03:01:46.729Z,78.55
2018-05-27T03:02:46.893Z,78.26
2018-05-27T03:03:47.079Z,77.59
2018-05-27T03:04:47.256Z,77.78
2018-05-27T03:05:47.447Z,78.26
2018-05-27T03:06:47.610Z,78.45
2018-05-27T03:07:47.813Z,77.87
2018-05-27T03:08:47.986Z,77.59
2018-05-27T03:09:48.211Z,77.11
2018-05-27T03:10:48.361Z,76.54
2018-05-27T03:11:48.540Z,76.64
2018-05-27T03:12:48.727Z,76.54
2018-05-27T03:13:48.890Z,76.25
2018-05-27T03:14:49.084Z,75.96
2018-05-27T03:15:49.286Z,75.87
2018-05-27T03:16:49.490Z,77.01
2018-05-27T03:17:49.656Z,77.11
2018-05-27T03:18:49.841Z,77.30
2018-05-27T03:19:50.025Z,77.69
2018-05-27T03:20:50.224Z,77.78
2018-05-27T03:21:50.397Z,77.97
2018-05-27T03:22:50.583Z,77.78
2018-05-27T03:23:50.771Z,77.59
2018-05-27T03:24:50.957Z,77.69
2018-05-27T03:25:51.145Z,77.87
2018-05-27T03:26:51.325Z,78.45
2018-05-27T03:27:51.503Z,78.26
2018-05-27T03:28:51.689Z,79.41
2018-05-27T03:29:51.869Z,79.12
2018-05-27T03:30:52.054Z,79.02
2018-05-27T03:31:52.240Z,78.83
2018-05-27T03:32:52.431Z,79.02
2018-05-27T03:33:52.616Z,78.64
2018-05-27T03:34:52.783Z,78.83
2018-05-27T03:35:52.966Z,79.02
2018-05-27T03:36:53.152Z,78.45
2018-05-27T03:37:53.354Z,78.55
2018-05-27T03:38:53.545Z,78.64
2018-05-27T03:39:53.694Z,78.55
2018-05-27T03:40:53.897Z,78.64
2018-05-27T03:41:54.062Z,77.97
2018-05-27T03:42:54.253Z,78.55
2018-05-27T03:43:54.472Z,78.49
2018-05-27T03:44:54.615Z,79.25
2018-05-27T03:45:54.795Z,79.06
2018-05-27T03:46:54.977Z,79.35
2018-05-27T03:47:55.152Z,79.64
2018-05-27T03:48:55.338Z,79.83
2018-05-27T03:49:55.523Z,79.73
2018-05-27T03:50:55.701Z,80.11
2018-05-27T03:51:55.899Z,80.21
2018-05-27T03:52:56.074Z,80.02
2018-05-27T03:53:56.263Z,80.11
2018-05-27T03:54:56.461Z,80.40
2018-05-27T03:55:56.635Z,80.11
2018-05-27T03:56:56.812Z,80.30
2018-05-27T03:57:56.998Z,79.83
2018-05-27T03:58:57.180Z,79.93
2018-05-27T03:59:57.374Z,80.59
2018-05-27T04:00:57.557Z,80.02
2018-05-27T04:01:57.730Z,80.50
2018-05-27T04:02:57.913Z,80.79
2018-05-27T04:03:58.108Z,80.69
2018-05-27T04:04:58.286Z,80.02
2018-05-27T04:05:58.496Z,80.69
2018-05-27T04:06:58.656Z,80.69
2018-05-27T04:07:58.844Z,80.59
2018-05-27T04:08:59.036Z,80.40
2018-05-27T04:09:59.209Z,80.30
2018-05-27T04:10:59.399Z,80.40
2018-05-27T04:11:59.587Z,80.59
2018-05-27T04:12:59.752Z,80.21
2018-05-27T04:13:59.942Z,80.69
2018-05-27T04:15:00.138Z,80.50
2018-05-27T04:16:00.323Z,80.59
2018-05-27T04:17:00.505Z,80.88
2018-05-27T04:18:00.683Z,80.59
2018-05-27T04:19:00.856Z,80.69
2018-05-27T04:20:01.061Z,80.79
2018-05-27T04:21:01.222Z,80.98
2018-05-27T04:22:01.405Z,81.40
2018-05-27T04:23:01.581Z,82.93
2018-05-27T04:24:01.759Z,82.93
2018-05-27T04:25:01.931Z,82.64
2018-05-27T04:26:02.136Z,82.83
2018-05-27T04:27:02.323Z,82.17
2018-05-27T04:28:02.506Z,82.26
2018-05-27T04:29:02.681Z,83.31
2018-05-27T04:30:02.869Z,83.12
2018-05-27T04:31:03.041Z,83.69
2018-05-27T04:32:03.205Z,83.98
2018-05-27T04:33:03.405Z,83.79
2018-05-27T04:34:03.605Z,83.89
2018-05-27T04:35:03.752Z,85.17
2018-05-27T04:36:03.946Z,85.27
2018-05-27T04:37:04.136Z,85.17
2018-05-27T04:38:04.314Z,87.08
2018-05-27T04:39:04.494Z,87.27
2018-05-27T04:40:04.735Z,88.04
2018-05-27T04:41:04.860Z,87.27
2018-05-27T04:42:05.043Z,89.90
2018-05-27T04:43:05.236Z,90.09
2018-05-27T04:44:05.409Z,89.72
2018-05-27T04:45:05.600Z,91.86
2018-05-27T04:46:05.782Z,94.12
2018-05-27T04:47:05.973Z,95.21
2018-05-27T04:48:06.162Z,96.56
2018-05-27T04:49:06.340Z,98.24
2018-05-27T04:50:06.530Z,98.43
2018-05-27T04:51:06.716Z,98.72
2018-05-27T04:52:06.904Z,97.71
2018-05-27T04:53:07.095Z,98.67
2018-05-27T04:54:07.288Z,99.87
2018-05-27T04:55:07.452Z,99.68
2018-05-27T04:56:07.638Z,99.35
2018-05-27T04:57:07.828Z,99.06
2018-05-27T04:58:08.013Z,99.59
2018-05-27T04:59:08.256Z,98.72
2018-05-27T05:00:08.390Z,98.53
2018-05-27T05:01:08.580Z,98.34
2018-05-27T05:02:08.777Z,98.00
2018-05-27T05:03:08.965Z,97.96
2018-05-27T05:04:09.155Z,97.28
2018-05-27T05:05:09.323Z,96.61
2018-05-27T05:06:09.528Z,96.12
2018-05-27T05:07:09.703Z,96.61
2018-05-27T05:08:09.887Z,97.52
2018-05-27T05:09:10.079Z,96.66
2018-05-27T05:10:10.286Z,95.60
2018-05-27T05:11:10.465Z,94.78
2018-05-27T05:12:10.637Z,94.78
2018-05-27T05:13:10.838Z,94.20
2018-05-27T05:14:11.008Z,93.24
2018-05-27T05:15:11.231Z,94.06
2018-05-27T05:16:11.390Z,93.91
2018-05-27T05:17:11.580Z,94.59
2018-05-27T05:18:11.764Z,94.73
2018-05-27T05:19:11.944Z,94.73
2018-05-27T05:20:12.147Z,93.86
2018-05-27T05:21:12.339Z,93.38
2018-05-27T05:22:12.589Z,92.90
2018-05-27T05:23:12.730Z,92.94
2018-05-27T05:24:12.910Z,94.73
2018-05-27T05:25:13.099Z,96.42
2018-05-27T05:26:13.276Z,98.29
2018-05-27T05:27:13.468Z,98.87
2018-05-27T05:28:13.689Z,99.73
2018-05-27T05:29:13.827Z,99.59
2018-05-27T05:30:14.023Z,99.98
2018-05-27T05:31:14.209Z,99.88
2018-05-27T05:32:14.407Z,99.68
2018-05-27T05:33:14.580Z,99.99
2018-05-27T05:34:14.777Z,99.99
2018-05-27T05:35:14.966Z,99.99
2018-05-27T05:36:15.157Z,99.99
2018-05-27T05:37:15.347Z,99.99
2018-05-27T05:38:15.536Z,99.99
2018-05-27T05:39:15.729Z,99.99
2018-05-27T05:40:15.918Z,99.99
2018-05-27T05:41:16.112Z,99.99
2018-05-27T05:42:16.314Z,99.99
2018-05-27T05:43:16.505Z,99.99
2018-05-27T05:44:16.682Z,99.99
2018-05-27T05:45:16.867Z,99.99
2018-05-27T05:46:17.051Z,99.99
2018-05-27T05:47:17.235Z,99.99
2018-05-27T05:48:17.434Z,99.99
2018-05-27T05:49:17.651Z,99.99
2018-05-27T05:50:17.809Z,99.99
2018-05-27T05:51:18.022Z,99.99
2018-05-27T05:52:18.169Z,99.99
2018-05-27T05:53:18.363Z,99.99
2018-05-27T05:54:18.543Z,99.99
2018-05-27T05:55:18.730Z,99.99
2018-05-27T05:56:18.912Z,99.99
2018-05-27T05:57:19.104Z,99.99
2018-05-27T05:58:19.295Z,99.99
2018-05-27T05:59:19.474Z,99.99
2018-05-27T06:00:19.665Z,99.99
2018-05-27T06:01:19.855Z,99.99
2018-05-27T06:02:20.041Z,99.99
2018-05-27T06:03:20.225Z,99.99
2018-05-27T06:04:20.408Z,99.99
2018-05-27T06:05:20.623Z,99.99
2018-05-27T06:06:20.785Z,99.83
2018-05-27T06:07:20.979Z,98.63
2018-05-27T06:08:21.175Z,98.72
2018-05-27T06:09:21.349Z,98.19
2018-05-27T06:10:21.539Z,97.91
2018-05-27T06:11:21.731Z,97.76
2018-05-27T06:12:21.919Z,97.28
2018-05-27T06:13:22.106Z,94.68
2018-05-27T06:14:22.308Z,94.68
2018-05-27T06:15:22.487Z,94.92
2018-05-27T06:16:22.674Z,95.69
2018-05-27T06:17:22.875Z,95.50
2018-05-27T06:18:23.065Z,95.40
2018-05-27T06:19:23.253Z,95.45
2018-05-27T06:20:23.443Z,96.56
2018-05-27T06:21:23.633Z,96.03
2018-05-27T06:22:23.822Z,95.94
2018-05-27T06:23:24.011Z,96.51
2018-05-27T06:24:24.196Z,97.04
2018-05-27T06:25:24.396Z,96.80
2018-05-27T06:26:24.583Z,95.50
2018-05-27T06:27:24.772Z,95.11
2018-05-27T06:28:24.973Z,94.68
2018-05-27T06:29:25.665Z,92.70
2018-05-27T06:30:25.365Z,91.25
2018-05-27T06:31:25.555Z,92.60
2018-05-27T06:32:25.739Z,91.39
2018-05-27T06:33:25.969Z,90.23
2018-05-27T06:34:26.117Z,90.91
2018-05-27T06:35:26.306Z,88.73
2018-05-27T06:36:26.499Z,88.64
2018-05-27T06:37:26.704Z,88.93
2018-05-27T06:38:26.874Z,88.15
2018-05-27T06:39:27.058Z,88.45
2018-05-27T06:40:27.248Z,88.54
2018-05-27T06:41:27.447Z,89.31
2018-05-27T06:42:27.634Z,89.27
2018-05-27T06:43:27.823Z,90.09
2018-05-27T06:44:28.013Z,90.38
2018-05-27T06:45:28.202Z,92.89
2018-05-27T06:46:28.436Z,92.27
2018-05-27T06:47:28.584Z,91.20
2018-05-27T06:48:28.779Z,93.28
2018-05-27T06:49:28.960Z,94.34
2018-05-27T06:50:29.161Z,92.50
2018-05-27T06:51:29.346Z,91.93
2018-05-27T06:52:29.542Z,92.70
2018-05-27T06:53:29.737Z,92.12
2018-05-27T06:54:29.919Z,92.74
2018-05-27T06:55:30.141Z,94.00
2018-05-27T06:56:30.320Z,92.60
2018-05-27T06:57:30.478Z,91.83
2018-05-27T06:58:30.671Z,91.05
2018-05-27T06:59:30.859Z,93.32
2018-05-27T07:00:31.050Z,90.61
2018-05-27T07:01:31.260Z,89.45
2018-05-27T07:02:31.432Z,88.39
2018-05-27T07:03:32.114Z,89.51
2018-05-27T07:04:31.841Z,90.57
2018-05-27T07:05:31.990Z,89.31
2018-05-27T07:06:32.178Z,89.89
2018-05-27T07:07:32.363Z,90.47
2018-05-27T07:08:32.552Z,90.67
2018-05-27T07:09:32.755Z,90.91
2018-05-27T07:10:32.931Z,91.39
2018-05-27T07:11:33.167Z,90.09
2018-05-27T07:12:33.310Z,90.37
2018-05-27T07:13:33.500Z,91.87
2018-05-27T07:14:33.707Z,92.55
2018-05-27T07:15:33.880Z,90.95
2018-05-27T07:16:34.069Z,90.75
2018-05-27T07:17:34.252Z,89.59
2018-05-27T07:18:34.468Z,89.11
2018-05-27T07:19:34.630Z,88.01
2018-05-27T07:20:34.820Z,89.36
2018-05-27T07:21:35.031Z,90.37
2018-05-27T07:22:35.197Z,89.79
2018-05-27T07:23:35.400Z,90.61
2018-05-27T07:24:35.585Z,87.95
2018-05-27T07:25:35.774Z,89.31
2018-05-27T07:26:35.963Z,88.96
2018-05-27T07:27:36.193Z,86.74
2018-05-27T07:28:36.350Z,85.19
2018-05-27T07:29:36.540Z,86.25
2018-05-27T07:30:36.753Z,88.91
2018-05-27T07:31:36.921Z,86.59
2018-05-27T07:32:37.110Z,85.28
2018-05-27T07:33:37.293Z,84.83
2018-05-27T07:34:37.546Z,82.76
2018-05-27T07:35:37.688Z,85.14
2018-05-27T07:36:37.873Z,85.04
2018-05-27T07:37:38.071Z,86.65
2018-05-27T07:38:38.257Z,87.75
2018-05-27T07:39:38.453Z,85.42
2018-05-27T07:40:38.672Z,85.29
2018-05-27T07:41:38.851Z,86.07
2018-05-27T07:42:39.025Z,88.01
2018-05-27T07:43:39.220Z,88.49
2018-05-27T07:44:39.417Z,90.17
2018-05-27T07:45:39.615Z,91.24
2018-05-27T07:46:39.860Z,92.06
2018-05-27T07:47:40.007Z,90.32
2018-05-27T07:48:40.214Z,88.67
2018-05-27T07:49:40.388Z,87.51
2018-05-27T07:50:40.580Z,87.18
2018-05-27T07:51:40.771Z,87.66
2018-05-27T07:52:40.973Z,89.21
2018-05-27T07:53:41.165Z,88.10
2018-05-27T07:54:41.369Z,88.15
2018-05-27T07:55:41.544Z,90.47
2018-05-27T07:56:41.766Z,91.73
2018-05-27T07:57:41.948Z,91.53
2018-05-27T07:58:42.127Z,90.71
2018-05-27T07:59:42.326Z,90.33
2018-05-27T08:00:42.522Z,91.09
2018-05-27T08:01:42.706Z,90.28
2018-05-27T08:02:42.899Z,91.53
2018-05-27T08:03:43.115Z,92.89
2018-05-27T08:04:43.267Z,90.43
2018-05-27T08:05:43.467Z,90.28
2018-05-27T08:06:43.649Z,91.88
2018-05-27T08:07:43.845Z,92.46
2018-05-27T08:08:44.034Z,92.74
2018-05-27T08:09:44.230Z,94.20
2018-05-27T08:10:44.440Z,94.38
2018-05-27T08:11:44.613Z,93.76
2018-05-27T08:12:44.810Z,94.72
2018-05-27T08:13:45.000Z,93.95
2018-05-27T08:14:45.193Z,94.53
2018-05-27T08:15:45.396Z,93.99
2018-05-27T08:16:45.569Z,93.03
2018-05-27T08:17:45.760Z,92.65
2018-05-27T08:18:45.954Z,92.45
2018-05-27T08:19:46.167Z,91.25
2018-05-27T08:20:46.320Z,92.07
2018-05-27T08:21:46.510Z,92.83
2018-05-27T08:22:46.704Z,91.87
2018-05-27T08:23:46.893Z,92.98
2018-05-27T08:24:47.081Z,92.31
2018-05-27T08:25:47.268Z,90.33
2018-05-27T08:26:47.457Z,91.87
2018-05-27T08:27:47.656Z,93.23
2018-05-27T08:28:47.857Z,91.87
2018-05-27T08:29:48.029Z,91.09
2018-05-27T08:30:48.218Z,91.67
2018-05-27T08:31:48.405Z,93.13
2018-05-27T08:32:48.590Z,93.51
2018-05-27T08:33:48.792Z,94.77
2018-05-27T08:34:48.981Z,93.08
2018-05-27T08:35:49.189Z,90.13
2018-05-27T08:36:49.368Z,92.11
2018-05-27T08:37:49.561Z,90.75
2018-05-27T08:38:49.753Z,93.08
2018-05-27T08:39:49.967Z,90.17
2018-05-27T08:40:50.134Z,91.33
2018-05-27T08:41:50.319Z,91.24
2018-05-27T08:42:50.500Z,89.79
2018-05-27T08:43:50.707Z,88.63
2018-05-27T08:44:50.911Z,89.50
2018-05-27T08:45:51.068Z,88.82
2018-05-27T08:46:51.262Z,90.66
2018-05-27T08:47:51.450Z,90.12
2018-05-27T08:48:51.641Z,90.41
2018-05-27T08:49:51.857Z,87.41
2018-05-27T08:50:52.029Z,88.87
2018-05-27T08:51:52.222Z,90.75
2018-05-27T08:52:52.412Z,92.30
2018-05-27T08:53:52.620Z,87.55
2018-05-27T08:54:52.788Z,85.33
2018-05-27T08:55:52.979Z,86.59
2018-05-27T08:56:53.159Z,88.13
2018-05-27T08:57:53.344Z,87.89
2018-05-27T08:58:53.536Z,88.37
2018-05-27T08:59:53.728Z,86.63
2018-05-27T09:00:53.915Z,86.54
2018-05-27T09:01:54.114Z,87.54
2018-05-27T09:02:54.285Z,84.64
2018-05-27T09:03:54.545Z,84.06
2018-05-27T09:04:54.712Z,83.15
2018-05-27T09:05:54.905Z,83.34
2018-05-27T09:06:55.071Z,85.22
2018-05-27T09:07:55.282Z,84.55
2018-05-27T09:08:55.517Z,85.22
2018-05-27T09:09:55.654Z,83.72
2018-05-27T09:10:55.866Z,83.72
2018-05-27T09:11:56.021Z,82.51
2018-05-27T09:12:56.208Z,83.03
2018-05-27T09:13:56.465Z,88.51
2018-05-27T09:14:56.716Z,83.75
2018-05-27T09:15:56.823Z,83.65
2018-05-27T09:16:57.044Z,82.30
2018-05-27T09:17:57.292Z,84.34
2018-05-27T09:18:57.436Z,80.69
2018-05-27T09:19:57.607Z,78.75
2018-05-27T09:20:57.796Z,81.02
2018-05-27T09:21:58.066Z,82.38
2018-05-27T09:22:58.344Z,79.04
2018-05-27T09:23:58.391Z,80.40
2018-05-27T09:24:58.607Z,80.21
2018-05-27T09:25:58.782Z,81.76
2018-05-27T09:26:58.979Z,84.42
2018-05-27T09:27:59.172Z,80.15
2018-05-27T09:28:59.363Z,82.97
2018-05-27T09:29:59.575Z,78.99
2018-05-27T09:30:59.781Z,80.93
2018-05-27T09:31:59.915Z,79.72
2018-05-27T09:33:00.193Z,79.78
2018-05-27T09:34:00.330Z,81.43
2018-05-27T09:35:00.552Z,84.38
2018-05-27T09:36:00.681Z,81.57
2018-05-27T09:37:00.848Z,79.43
2018-05-27T09:38:01.076Z,82.05
2018-05-27T09:39:01.297Z,80.11
2018-05-27T09:40:01.436Z,81.02
2018-05-27T09:41:01.661Z,82.18
2018-05-27T09:42:01.884Z,80.50
2018-05-27T09:43:02.012Z,81.47
2018-05-27T09:44:02.177Z,82.44
2018-05-27T09:45:02.376Z,82.57
2018-05-27T09:46:02.555Z,83.74
2018-05-27T09:47:02.897Z,81.60
2018-05-27T09:48:02.928Z,79.72
2018-05-27T09:49:03.101Z,78.89
2018-05-27T09:50:03.340Z,84.91
2018-05-27T09:51:03.555Z,78.56
2018-05-27T09:52:03.723Z,82.15
2018-05-27T09:53:03.885Z,80.79
2018-05-27T09:54:04.097Z,80.85
2018-05-27T09:55:04.370Z,84.77
2018-05-27T09:56:04.494Z,79.04
2018-05-27T09:57:04.667Z,85.00
2018-05-27T09:58:04.872Z,81.99
2018-05-27T09:59:05.735Z,81.74
2018-05-27T10:00:05.253Z,79.32
2018-05-27T10:01:05.382Z,78.40
2018-05-27T10:02:05.539Z,81.84
2018-05-27T10:03:05.734Z,81.93
2018-05-27T10:04:05.972Z,81.06
2018-05-27T10:05:06.130Z,78.54
2018-05-27T10:06:06.337Z,81.98
2018-05-27T10:07:06.530Z,78.28
2018-05-27T10:08:06.724Z,81.01
2018-05-27T10:09:06.917Z,81.98
2018-05-27T10:10:07.089Z,80.13
2018-05-27T10:11:07.339Z,78.19
2018-05-27T10:12:07.493Z,78.91
2018-05-27T10:13:07.699Z,77.31
2018-05-27T10:14:07.856Z,78.52
2018-05-27T10:15:08.042Z,76.44
2018-05-27T10:16:08.302Z,76.92
2018-05-27T10:17:08.414Z,79.16
2018-05-27T10:18:08.626Z,78.58
2018-05-27T10:19:08.815Z,76.15
2018-05-27T10:20:08.996Z,78.52
2018-05-27T10:21:09.420Z,75.70
2018-05-27T10:22:09.398Z,76.73
2018-05-27T10:23:09.755Z,75.31
2018-05-27T10:24:09.842Z,77.61
2018-05-27T10:25:10.011Z,76.64
2018-05-27T10:26:10.291Z,75.47
2018-05-27T10:27:10.388Z,75.89
2018-05-27T10:28:10.580Z,77.25
2018-05-27T10:29:10.781Z,77.15
2018-05-27T10:30:10.975Z,77.10
2018-05-27T10:31:11.170Z,76.90
2018-05-27T10:32:11.429Z,75.54
2018-05-27T10:33:11.636Z,76.71
2018-05-27T10:34:11.759Z,72.04
2018-05-27T10:35:16.779Z,73.27
2018-05-27T10:36:12.243Z,73.18
2018-05-27T10:37:12.421Z,71.66
2018-05-27T10:38:12.570Z,71.26
2018-05-27T10:39:12.823Z,72.92
2018-05-27T10:40:12.976Z,77.68
2018-05-27T10:41:13.209Z,73.50
2018-05-27T10:42:13.359Z,73.50
2018-05-27T10:43:13.662Z,73.95
2018-05-27T10:44:13.793Z,72.78
2018-05-27T10:45:13.978Z,74.21
2018-05-27T10:46:14.280Z,79.49
2018-05-27T10:47:14.388Z,76.34
2018-05-27T10:48:14.555Z,77.55
2018-05-27T10:49:14.748Z,74.05
2018-05-27T10:50:14.943Z,76.28
2018-05-27T10:51:15.159Z,74.34
2018-05-27T10:52:15.368Z,73.43
2018-05-27T10:53:15.514Z,76.48
2018-05-27T10:54:15.692Z,75.60
2018-05-27T10:55:15.874Z,72.88
2018-05-27T10:56:16.061Z,73.46
2018-05-27T10:57:16.271Z,75.60
2018-05-27T10:58:16.529Z,73.50
2018-05-27T10:59:16.641Z,73.02
2018-05-27T11:00:16.830Z,72.72
2018-05-27T11:01:17.031Z,72.78
2018-05-27T11:02:17.254Z,72.49
2018-05-27T11:03:17.428Z,73.89
2018-05-27T11:04:17.621Z,72.82
2018-05-27T11:05:17.820Z,73.11
2018-05-27T11:06:18.004Z,71.26
2018-05-27T11:07:18.189Z,69.32
2018-05-27T11:08:18.382Z,72.17
2018-05-27T11:09:18.617Z,71.94
2018-05-27T11:10:18.834Z,71.17
2018-05-27T11:11:19.044Z,70.55
2018-05-27T11:12:19.093Z,72.88
2018-05-27T11:13:19.272Z,71.72
2018-05-27T11:14:19.458Z,72.20
2018-05-27T11:15:19.638Z,71.72
2018-05-27T11:16:19.855Z,76.42
2018-05-27T11:17:20.042Z,76.61
2018-05-27T11:18:20.257Z,71.56
2018-05-27T11:19:20.421Z,70.39
2018-05-27T11:20:20.623Z,69.96
2018-05-27T11:21:20.800Z,70.94
2018-05-27T11:22:20.988Z,75.05
2018-05-27T11:23:21.221Z,71.07
2018-05-27T11:24:21.399Z,72.82
2018-05-27T11:25:21.650Z,74.18
2018-05-27T11:26:21.701Z,76.07
2018-05-27T11:27:21.985Z,74.61
2018-05-27T11:28:22.065Z,70.62
2018-05-27T11:29:22.294Z,72.02
2018-05-27T11:30:22.468Z,72.47
2018-05-27T11:31:22.666Z,74.06
2018-05-27T11:32:22.877Z,71.72
2018-05-27T11:33:23.047Z,72.21
2018-05-27T11:34:23.242Z,70.46
2018-05-27T11:35:23.482Z,68.61
2018-05-27T11:36:23.610Z,70.56
2018-05-27T11:37:23.863Z,70.56
2018-05-27T11:38:24.072Z,71.23
2018-05-27T11:39:24.220Z,70.20
2018-05-27T11:40:24.502Z,69.58
2018-05-27T11:41:24.744Z,68.55
2018-05-27T11:42:24.877Z,69.68
2018-05-27T11:43:24.995Z,67.35
2018-05-27T11:44:25.256Z,68.38
2018-05-27T11:45:25.377Z,68.48
2018-05-27T11:46:25.622Z,67.73
2018-05-27T11:47:25.822Z,68.74
2018-05-27T11:48:26.018Z,71.46
2018-05-27T11:49:26.273Z,68.74
2018-05-27T11:50:26.466Z,70.94
2018-05-27T11:51:26.632Z,77.87
2018-05-27T11:52:26.815Z,73.02
2018-05-27T11:53:26.976Z,71.98
2018-05-27T11:54:27.204Z,67.99
2018-05-27T11:55:27.367Z,74.84
2018-05-27T11:56:27.522Z,70.36
2018-05-27T11:57:27.716Z,66.47
2018-05-27T11:58:27.909Z,71.17
2018-05-27T11:59:28.094Z,70.78
2018-05-27T12:00:28.418Z,64.55
2018-05-27T12:01:28.517Z,64.36
2018-05-27T12:02:28.686Z,64.84
2018-05-27T12:03:28.877Z,70.20
2018-05-27T12:04:29.082Z,67.44
2018-05-27T12:05:29.260Z,66.14
2018-05-27T12:06:29.441Z,70.78
2018-05-27T12:07:29.634Z,67.28
2018-05-27T12:08:29.862Z,67.28
2018-05-27T12:09:30.145Z,70.10
2018-05-27T12:10:30.231Z,67.86
2018-05-27T12:11:30.427Z,66.21
2018-05-27T12:12:30.622Z,72.43
2018-05-27T12:13:30.863Z,68.93
2018-05-27T12:14:31.004Z,66.47
2018-05-27T12:15:31.208Z,66.08
2018-05-27T12:16:31.373Z,69.29
2018-05-27T12:17:31.698Z,68.90
2018-05-27T12:18:31.757Z,67.15
2018-05-27T12:19:32.004Z,68.28
2018-05-27T12:20:32.127Z,67.93
2018-05-27T12:21:32.381Z,67.93
2018-05-27T12:22:32.512Z,71.81
2018-05-27T12:23:32.694Z,67.83
2018-05-27T12:24:32.888Z,69.03
2018-05-27T12:25:33.067Z,70.10
2018-05-27T12:26:33.263Z,69.65
2018-05-27T12:27:33.446Z,69.65
2018-05-27T12:28:33.639Z,70.81
2018-05-27T12:29:33.898Z,69.45
2018-05-27T12:30:34.063Z,73.63
2018-05-27T12:31:34.216Z,72.02
2018-05-27T12:32:34.431Z,69.45
2018-05-27T12:33:34.600Z,68.80
2018-05-27T12:34:34.793Z,67.80
2018-05-27T12:35:34.993Z,67.60
2018-05-27T12:36:35.167Z,68.57
2018-05-27T12:37:36.361Z,69.71
2018-05-27T12:38:35.545Z,74.96
2018-05-27T12:39:35.744Z,74.38
2018-05-27T12:40:35.928Z,78.27
2018-05-27T12:41:36.139Z,75.64
2018-05-27T12:42:36.336Z,71.50
2018-05-27T12:43:36.519Z,69.65
2018-05-27T12:44:36.719Z,70.23
2018-05-27T12:45:36.921Z,69.74
2018-05-27T12:46:37.083Z,69.74
2018-05-27T12:47:37.310Z,69.35
2018-05-27T12:48:37.488Z,70.72
2018-05-27T12:49:37.662Z,68.96
2018-05-27T12:50:37.851Z,67.80
2018-05-27T12:51:38.066Z,66.60
2018-05-27T12:52:38.268Z,66.99
2018-05-27T12:53:38.417Z,66.89
2018-05-27T12:54:38.619Z,69.26